Wind From: 11-12-2017 04:25 Until: 16:00 warning for: Wind Level: Orange info button

Power and phone distribution networks may be disrupted for relatively long periods., Roofs and chimneys can be damaged. , Tree branches may break. , Vehicles can be deported. , Traffic may be disrupted, particularly on secondary roads in forest areas. Limit your trips. , Limit your speed in highway driving, especially if you drive a vehicle or hitch sensitive to wind. , Do not go for walks in forests or along the coast., In town, be vigilant against possible falling objects., Do not work on roofs and do not touch any electrical line fallen on the ground., Store or secure sensitive objects to wind or likely to be damaged., Always install power generators outside buildings. 


Meteo18 Weather Cam more information Meteo18 Weather Cam


Thunder radar more information blitzortung!


Rain radar more information rain snow radar


Visit our other weather sites:

Template documentation
and downloads

And another site



Weather Underground History page Text

Daily Summary for June 25, 2017 Units:  Metric    English   Both
« Previous Day
Next Day »
Daily Weekly Monthly Yearly Custom
  High: Low: Average:
Temperature: 25.6 °C 13.2 °C 19.7 °C
Dew Point: 16.1 °C 10.7 °C 14 °C
Humidity: 85 % 53 % 71 %
Wind Speed: 19.3 km/h 0.0 km/h 5.3 km/h
Wind Gust: 25.7 km/h - -
Wind:- - WSW
Pressure: 1020.2 hPa 1016.5 hPa -
Precipitation: 0.0 mm    
Historical Graphs
 
 
Tabular Data for June 25, 2017
Time Temperature Dew Point Pressure Wind Wind Speed Wind Gust Humidity Rainfall Rate (Hourly)
00:02 17.6 °C 12.7 °C 1018.8 hPa Calm   1.6 km/h 73 % 0.0 mm
00:12 17.3 °C 12.6 °C 1018.8 hPa Calm     74 % 0.0 mm
00:17 17.2 °C 12.5 °C 1019.2 hPa Calm     74 % 0.0 mm
00:22 17.1 °C 12.4 °C 1018.8 hPa Calm     74 % 0.0 mm
00:27 16.9 °C 12.4 °C 1018.8 hPa Calm     75 % 0.0 mm
00:32 16.8 °C 12.3 °C 1018.8 hPa Calm     75 % 0.0 mm
00:37 16.9 °C 12.4 °C 1018.8 hPa SSW 3.2 km/h   75 % 0.0 mm
00:42 17.6 °C 12.9 °C 1018.8 hPa SW 4.8 km/h 4.8 km/h 74 % 0.0 mm
00:52 18.3 °C 12.7 °C 1018.8 hPa WSW 3.2 km/h 8.0 km/h 70 % 0.0 mm
01:02 18.6 °C 12.8 °C 1018.8 hPa West 6.4 km/h 8.0 km/h 69 % 0.0 mm
01:07 18.6 °C 12.8 °C 1018.8 hPa West 4.8 km/h 8.0 km/h 69 % 0.0 mm
01:12 18.5 °C 12.7 °C 1018.8 hPa West 1.6 km/h 8.0 km/h 69 % 0.0 mm
01:17 18.6 °C 12.8 °C 1018.8 hPa West 3.2 km/h 8.0 km/h 69 % 0.0 mm
01:22 18.6 °C 12.8 °C 1018.8 hPa WNW 1.6 km/h 8.0 km/h 69 % 0.0 mm
01:32 18.8 °C 12.8 °C 1018.8 hPa West 1.6 km/h 9.7 km/h 68 % 0.0 mm
01:42 18.7 °C 12.4 °C 1018.8 hPa WNW 3.2 km/h 8.0 km/h 67 % 0.0 mm
01:52 18.8 °C 12.3 °C 1018.8 hPa WNW 4.8 km/h 9.7 km/h 66 % 0.0 mm
02:02 18.9 °C 12.2 °C 1018.8 hPa West 11.3 km/h 12.9 km/h 65 % 0.0 mm
02:07 19.0 °C 12.3 °C 1018.8 hPa WNW 4.8 km/h 22.5 km/h 65 % 0.0 mm
02:12 18.9 °C 12.2 °C 1018.8 hPa WSW 6.4 km/h 22.5 km/h 65 % 0.0 mm
02:22 18.7 °C 12.2 °C 1018.8 hPa WNW 8.0 km/h 17.7 km/h 66 % 0.0 mm
02:27 18.7 °C 12.2 °C 1018.8 hPa West 4.8 km/h 14.5 km/h 66 % 0.0 mm
02:32 18.5 °C 12.3 °C 1018.8 hPa WNW 3.2 km/h 14.5 km/h 67 % 0.0 mm
02:42 18.3 °C 12.3 °C 1018.8 hPa West 6.4 km/h 14.5 km/h 68 % 0.0 mm
02:47 18.3 °C 12.3 °C 1018.8 hPa West 11.3 km/h 14.5 km/h 68 % 0.0 mm
02:52 18.2 °C 12.2 °C 1019.2 hPa West 9.7 km/h 14.5 km/h 68 % 0.0 mm
02:57 18.1 °C 12.1 °C 1019.2 hPa WSW 4.8 km/h 14.5 km/h 68 % 0.0 mm
03:02 18.0 °C 12.0 °C 1019.2 hPa West 3.2 km/h 14.5 km/h 68 % 0.0 mm
03:07 17.8 °C 12.0 °C 1019.2 hPa West 4.8 km/h 11.3 km/h 69 % 0.0 mm
03:12 17.7 °C 12.2 °C 1019.2 hPa WSW 6.4 km/h 11.3 km/h 70 % 0.0 mm
03:22 17.4 °C 11.9 °C 1019.2 hPa West 8.0 km/h 8.0 km/h 70 % 0.0 mm
03:32 17.3 °C 12.0 °C 1019.2 hPa West 3.2 km/h 9.7 km/h 71 % 0.0 mm
03:42 17.2 °C 11.9 °C 1018.8 hPa WSW 1.6 km/h 9.7 km/h 71 % 0.0 mm
03:47 17.0 °C 11.9 °C 1019.2 hPa West 1.6 km/h 9.7 km/h 72 % 0.0 mm
03:52 16.9 °C 12.0 °C 1019.2 hPa SW 4.8 km/h 9.7 km/h 73 % 0.0 mm
03:57 16.8 °C 11.9 °C 1019.2 hPa West 1.6 km/h 6.4 km/h 73 % 0.0 mm
04:02 16.6 °C 11.9 °C 1019.2 hPa West 3.2 km/h 6.4 km/h 74 % 0.0 mm
04:07 16.4 °C 11.8 °C 1019.2 hPa West 1.6 km/h 6.4 km/h 74 % 0.0 mm
04:12 16.4 °C 11.8 °C 1019.2 hPa WNW 8.0 km/h 8.0 km/h 74 % 0.0 mm
04:17 16.3 °C 11.9 °C 1019.2 hPa WSW 6.4 km/h 8.0 km/h 75 % 0.0 mm
04:27 16.2 °C 11.8 °C 1019.2 hPa WSW 1.6 km/h 8.0 km/h 75 % 0.0 mm
04:32 16.1 °C 11.9 °C 1019.2 hPa WSW 3.2 km/h 8.0 km/h 76 % 0.0 mm
04:37 15.8 °C 11.6 °C 1019.2 hPa WSW 3.2 km/h 6.4 km/h 76 % 0.0 mm
04:42 15.7 °C 11.7 °C 1019.2 hPa SW 1.6 km/h 6.4 km/h 77 % 0.0 mm
04:47 15.6 °C 11.6 °C 1019.2 hPa SSW 3.2 km/h 9.7 km/h 77 % 0.0 mm
04:52 15.5 °C 11.7 °C 1019.2 hPa SSW 3.2 km/h 9.7 km/h 78 % 0.0 mm
05:02 15.2 °C 11.4 °C 1019.2 hPa SW 4.8 km/h 8.0 km/h 78 % 0.0 mm
05:12 15.2 °C 11.6 °C 1019.2 hPa SW 3.2 km/h 11.3 km/h 79 % 0.0 mm
05:22 14.7 °C 11.5 °C 1019.5 hPa SSW 6.4 km/h 11.3 km/h 81 % 0.0 mm
05:32 14.6 °C 11.6 °C 1019.5 hPa SW 1.6 km/h 9.7 km/h 82 % 0.0 mm
05:42 14.4 °C 11.4 °C 1019.5 hPa West 3.2 km/h 9.7 km/h 82 % 0.0 mm
05:52 14.2 °C 11.2 °C 1019.5 hPa Calm   8.0 km/h 82 % 0.0 mm
06:02 14.1 °C 11.3 °C 1019.5 hPa SW 6.4 km/h 6.4 km/h 83 % 0.0 mm
06:07 14.0 °C 11.2 °C 1019.5 hPa WSW 6.4 km/h 8.0 km/h 83 % 0.0 mm
06:12 13.9 °C 11.1 °C 1019.5 hPa WSW 1.6 km/h 8.0 km/h 83 % 0.0 mm
06:17 13.8 °C 11.1 °C 1019.5 hPa Calm   8.0 km/h 84 % 0.0 mm
06:22 13.7 °C 11.0 °C 1019.5 hPa Calm   8.0 km/h 84 % 0.0 mm
06:32 13.3 °C 10.8 °C 1019.9 hPa SE 1.6 km/h 6.4 km/h 85 % 0.0 mm
06:37 13.2 °C 10.7 °C 1019.9 hPa Calm   3.2 km/h 85 % 0.0 mm
06:42 13.4 °C 10.9 °C 1019.9 hPa South 1.6 km/h 3.2 km/h 85 % 0.0 mm
06:47 13.6 °C 11.1 °C 1019.9 hPa SW 3.2 km/h 4.8 km/h 85 % 0.0 mm
06:57 13.8 °C 11.1 °C 1019.5 hPa SW 3.2 km/h 4.8 km/h 84 % 0.0 mm
07:07 13.9 °C 11.4 °C 1019.9 hPa SSW 1.6 km/h 6.4 km/h 85 % 0.0 mm
07:12 14.2 °C 11.7 °C 1019.9 hPa SSW 4.8 km/h 6.4 km/h 85 % 0.0 mm
07:17 14.6 °C 12.1 °C 1019.9 hPa SSW 4.8 km/h 6.4 km/h 85 % 0.0 mm
07:22 14.9 °C 12.2 °C 1019.9 hPa SW 8.0 km/h 8.0 km/h 84 % 0.0 mm
07:32 15.3 °C 12.2 °C 1019.9 hPa WSW 6.4 km/h 11.3 km/h 82 % 0.0 mm
07:37 15.4 °C 12.3 °C 1019.9 hPa WSW 11.3 km/h 16.1 km/h 82 % 0.0 mm
07:42 15.4 °C 12.3 °C 1019.9 hPa WSW 6.4 km/h 16.1 km/h 82 % 0.0 mm
07:52 15.4 °C 12.3 °C 1019.9 hPa SW 12.9 km/h 17.7 km/h 82 % 0.0 mm
08:02 15.6 °C 12.5 °C 1019.9 hPa SW 17.7 km/h 19.3 km/h 82 % 0.0 mm
08:07 15.7 °C 12.8 °C 1019.9 hPa WSW 9.7 km/h 19.3 km/h 83 % 0.0 mm
08:12 15.8 °C 12.7 °C 1019.9 hPa WSW 8.0 km/h 19.3 km/h 82 % 0.0 mm
08:17 15.8 °C 12.9 °C 1019.9 hPa WSW 4.8 km/h 19.3 km/h 83 % 0.0 mm
08:22 16.0 °C 12.9 °C 1019.9 hPa West 14.5 km/h 19.3 km/h 82 % 0.0 mm
08:32 16.2 °C 13.3 °C 1019.9 hPa SW 8.0 km/h 24.1 km/h 83 % 0.0 mm
08:37 16.4 °C 13.3 °C 1019.9 hPa West 6.4 km/h 19.3 km/h 82 % 0.0 mm
08:42 16.6 °C 13.3 °C 1019.9 hPa WSW 4.8 km/h 19.3 km/h 81 % 0.0 mm
08:47 16.8 °C 13.5 °C 1019.9 hPa West 8.0 km/h 19.3 km/h 81 % 0.0 mm
08:52 16.9 °C 13.4 °C 1019.9 hPa WSW 6.4 km/h 19.3 km/h 80 % 0.0 mm
09:02 17.3 °C 14.0 °C 1019.9 hPa SSW 3.2 km/h 19.3 km/h 81 % 0.0 mm
09:12 17.4 °C 13.7 °C 1019.5 hPa SW 8.0 km/h 20.9 km/h 79 % 0.0 mm
09:22 17.3 °C 13.6 °C 1019.5 hPa WSW 8.0 km/h 17.7 km/h 79 % 0.0 mm
09:32 17.4 °C 13.5 °C 1019.5 hPa WSW 4.8 km/h 16.1 km/h 78 % 0.0 mm
09:37 17.5 °C 13.6 °C 1019.9 hPa SW 8.0 km/h 17.7 km/h 78 % 0.0 mm
09:42 17.6 °C 13.5 °C 1019.5 hPa WSW 11.3 km/h 17.7 km/h 77 % 0.0 mm
09:47 17.6 °C 13.7 °C 1019.5 hPa SSW 9.7 km/h 17.7 km/h 78 % 0.0 mm
09:52 17.8 °C 13.9 °C 1019.9 hPa SW 9.7 km/h 17.7 km/h 78 % 0.0 mm
10:02 17.9 °C 13.6 °C 1019.5 hPa WNW 8.0 km/h 17.7 km/h 76 % 0.0 mm
10:12 18.0 °C 13.5 °C 1019.9 hPa West 6.4 km/h 20.9 km/h 75 % 0.0 mm
10:17 18.0 °C 13.5 °C 1019.9 hPa West 16.1 km/h 25.7 km/h 75 % 0.0 mm
10:22 18.1 °C 13.8 °C 1019.9 hPa West 9.7 km/h 25.7 km/h 76 % 0.0 mm
10:32 18.2 °C 13.9 °C 1019.9 hPa WSW 4.8 km/h 25.7 km/h 76 % 0.0 mm
10:37 18.1 °C 13.8 °C 1019.9 hPa West 14.5 km/h 20.9 km/h 76 % 0.0 mm
10:42 18.1 °C 14.0 °C 1019.9 hPa West 6.4 km/h 20.9 km/h 77 % 0.0 mm
10:47 18.3 °C 14.4 °C 1019.9 hPa West 4.8 km/h 20.9 km/h 78 % 0.0 mm
10:52 18.3 °C 14.4 °C 1019.9 hPa WSW 17.7 km/h 20.9 km/h 78 % 0.0 mm
11:02 18.1 °C 14.6 °C 1019.9 hPa West 6.4 km/h 17.7 km/h 80 % 0.0 mm
11:12 18.1 °C 14.6 °C 1019.9 hPa WSW 14.5 km/h 17.7 km/h 80 % 0.0 mm
11:17 17.9 °C 14.6 °C 1019.9 hPa WSW 19.3 km/h 19.3 km/h 81 % 0.0 mm
11:22 17.8 °C 14.7 °C 1019.9 hPa West 9.7 km/h 19.3 km/h 82 % 0.0 mm
11:32 18.1 °C 14.6 °C 1019.9 hPa WSW 8.0 km/h 19.3 km/h 80 % 0.0 mm
11:37 18.2 °C 14.7 °C 1019.9 hPa WNW 6.4 km/h 16.1 km/h 80 % 0.0 mm
11:42 18.2 °C 14.9 °C 1019.9 hPa West 11.3 km/h 16.1 km/h 81 % 0.0 mm
11:52 18.3 °C 14.8 °C 1019.9 hPa SW 6.4 km/h 19.3 km/h 80 % 0.0 mm
12:02 18.5 °C 15.0 °C 1019.9 hPa SW 12.9 km/h 19.3 km/h 80 % 0.0 mm
12:07 18.8 °C 15.3 °C 1019.9 hPa SSW 3.2 km/h 19.3 km/h 80 % 0.0 mm
12:12 18.8 °C 15.1 °C 1019.9 hPa SSW 9.7 km/h 19.3 km/h 79 % 0.0 mm
12:17 18.9 °C 15.2 °C 1020.2 hPa WSW 8.0 km/h 17.7 km/h 79 % 0.0 mm
12:22 19.1 °C 15.2 °C 1019.9 hPa SW 9.7 km/h 17.7 km/h 78 % 0.0 mm
12:32 19.1 °C 15.2 °C 1019.9 hPa WSW 3.2 km/h 17.7 km/h 78 % 0.0 mm
12:42 19.4 °C 15.5 °C 1019.9 hPa SW 8.0 km/h 17.7 km/h 78 % 0.0 mm
12:52 19.5 °C 15.6 °C 1019.9 hPa SW 12.9 km/h 17.7 km/h 78 % 0.0 mm
13:02 19.9 °C 15.5 °C 1019.9 hPa SSW 4.8 km/h 19.3 km/h 76 % 0.0 mm
13:12 20.2 °C 15.8 °C 1019.9 hPa West 8.0 km/h 17.7 km/h 76 % 0.0 mm
13:17 20.2 °C 15.6 °C 1019.9 hPa West 6.4 km/h 17.7 km/h 75 % 0.0 mm
13:22 20.3 °C 15.9 °C 1019.9 hPa West 11.3 km/h 17.7 km/h 76 % 0.0 mm
13:32 20.6 °C 15.8 °C 1019.9 hPa West 9.7 km/h 17.7 km/h 74 % 0.0 mm
13:37 20.7 °C 16.1 °C 1019.9 hPa WSW 4.8 km/h 17.7 km/h 75 % 0.0 mm
13:42 20.9 °C 15.7 °C 1019.9 hPa West 8.0 km/h 17.7 km/h 72 % 0.0 mm
13:47 20.8 °C 15.6 °C 1019.9 hPa SW 11.3 km/h 17.7 km/h 72 % 0.0 mm
13:52 20.9 °C 15.4 °C 1019.9 hPa West 4.8 km/h 22.5 km/h 71 % 0.0 mm
13:57 20.8 °C 15.6 °C 1019.9 hPa WSW 11.3 km/h 22.5 km/h 72 % 0.0 mm
14:02 20.7 °C 15.7 °C 1019.9 hPa SW 4.8 km/h 16.1 km/h 73 % 0.0 mm
14:12 20.9 °C 15.7 °C 1019.9 hPa SW 9.7 km/h 17.7 km/h 72 % 0.0 mm
14:17 21.1 °C 15.4 °C 1019.5 hPa WSW 11.3 km/h 17.7 km/h 70 % 0.0 mm
14:22 21.2 °C 15.3 °C 1019.5 hPa WSW 8.0 km/h 17.7 km/h 69 % 0.0 mm
14:27 21.6 °C 15.4 °C 1019.5 hPa WSW 6.4 km/h 20.9 km/h 68 % 0.0 mm
14:32 21.7 °C 15.8 °C 1019.5 hPa West 6.4 km/h 20.9 km/h 69 % 0.0 mm
14:37 21.7 °C 15.5 °C 1019.5 hPa WNW 6.4 km/h 19.3 km/h 68 % 0.0 mm
14:42 21.7 °C 15.5 °C 1019.5 hPa SW 11.3 km/h 19.3 km/h 68 % 0.0 mm
14:47 21.8 °C 15.6 °C 1019.5 hPa West 11.3 km/h 19.3 km/h 68 % 0.0 mm
14:52 21.8 °C 15.6 °C 1019.5 hPa West 4.8 km/h 19.3 km/h 68 % 0.0 mm
14:57 21.8 °C 15.6 °C 1019.5 hPa WNW 3.2 km/h 17.7 km/h 68 % 0.0 mm
15:02 21.9 °C 15.5 °C 1019.5 hPa WNW 8.0 km/h 17.7 km/h 67 % 0.0 mm
15:12 22.2 °C 15.8 °C 1019.2 hPa NNW 3.2 km/h 14.5 km/h 67 % 0.0 mm
15:17 22.4 °C 15.5 °C 1019.2 hPa WNW 6.4 km/h 12.9 km/h 65 % 0.0 mm
15:22 22.2 °C 15.3 °C 1019.2 hPa West 8.0 km/h 12.9 km/h 65 % 0.0 mm
15:27 22.4 °C 15.7 °C 1019.2 hPa West 9.7 km/h 17.7 km/h 66 % 0.0 mm
15:32 22.9 °C 16.0 °C 1019.2 hPa West 12.9 km/h 17.7 km/h 65 % 0.0 mm
15:42 22.9 °C 15.5 °C 1018.8 hPa WNW 11.3 km/h 17.7 km/h 63 % 0.0 mm
15:47 23.1 °C 15.4 °C 1018.8 hPa WSW 12.9 km/h 17.7 km/h 62 % 0.0 mm
15:52 23.1 °C 15.4 °C 1018.8 hPa West 9.7 km/h 17.7 km/h 62 % 0.0 mm
15:57 22.9 °C 15.7 °C 1018.8 hPa WNW 8.0 km/h 16.1 km/h 64 % 0.0 mm
16:02 23.1 °C 15.4 °C 1018.8 hPa WSW 3.2 km/h 16.1 km/h 62 % 0.0 mm
16:12 23.2 °C 15.3 °C 1018.5 hPa WSW 8.0 km/h 14.5 km/h 61 % 0.0 mm
16:17 23.2 °C 15.5 °C 1018.5 hPa WSW 4.8 km/h 16.1 km/h 62 % 0.0 mm
16:22 23.4 °C 15.2 °C 1018.5 hPa WSW 11.3 km/h 16.1 km/h 60 % 0.0 mm
16:27 23.5 °C 14.8 °C 1018.2 hPa WNW 8.0 km/h 19.3 km/h 58 % 0.0 mm
16:32 23.6 °C 14.9 °C 1018.2 hPa West 8.0 km/h 19.3 km/h 58 % 0.0 mm
16:42 24.2 °C 14.0 °C 1018.2 hPa WNW 6.4 km/h 22.5 km/h 53 % 0.0 mm
16:52 24.4 °C 14.8 °C 1017.8 hPa WNW 12.9 km/h 19.3 km/h 55 % 0.0 mm
16:57 24.5 °C 14.3 °C 1017.8 hPa WSW 3.2 km/h 24.1 km/h 53 % 0.0 mm
17:02 24.5 °C 14.6 °C 1017.8 hPa West 9.7 km/h 24.1 km/h 54 % 0.0 mm
17:12 24.1 °C 14.8 °C 1017.8 hPa SSW 4.8 km/h 24.1 km/h 56 % 0.0 mm
17:17 23.9 °C 14.9 °C 1017.8 hPa WSW 6.4 km/h 20.9 km/h 57 % 0.0 mm
17:22 24.1 °C 15.0 °C 1017.8 hPa WNW 3.2 km/h 20.9 km/h 57 % 0.0 mm
17:27 24.3 °C 15.2 °C 1017.8 hPa West 8.0 km/h 12.9 km/h 57 % 0.0 mm
17:32 24.2 °C 14.9 °C 1017.8 hPa WNW 9.7 km/h 12.9 km/h 56 % 0.0 mm
17:37 24.3 °C 15.2 °C 1017.8 hPa WNW 6.4 km/h 19.3 km/h 57 % 0.0 mm
17:42 24.6 °C 15.0 °C 1017.8 hPa WSW 8.0 km/h 19.3 km/h 55 % 0.0 mm
17:52 24.8 °C 15.1 °C 1017.8 hPa WNW 4.8 km/h 19.3 km/h 55 % 0.0 mm
17:57 24.6 °C 14.7 °C 1017.5 hPa WNW 9.7 km/h 17.7 km/h 54 % 0.0 mm
18:02 24.4 °C 14.8 °C 1017.5 hPa NW 4.8 km/h 17.7 km/h 55 % 0.0 mm
18:12 24.9 °C 15.5 °C 1017.5 hPa West 3.2 km/h 17.7 km/h 56 % 0.0 mm
18:17 25.1 °C 15.1 °C 1017.5 hPa West 3.2 km/h 14.5 km/h 54 % 0.0 mm
18:22 25.0 °C 15.0 °C 1017.5 hPa West 6.4 km/h 14.5 km/h 54 % 0.0 mm
18:32 24.5 °C 15.4 °C 1017.2 hPa WSW 3.2 km/h 14.5 km/h 57 % 0.0 mm
18:42 25.1 °C 15.4 °C 1017.2 hPa West 1.6 km/h 11.3 km/h 55 % 0.0 mm
18:47 25.3 °C 15.3 °C 1017.2 hPa WNW 6.4 km/h 11.3 km/h 54 % 0.0 mm
18:57 24.6 °C 15.2 °C 1017.2 hPa West 6.4 km/h 17.7 km/h 56 % 0.0 mm
19:02 24.4 °C 15.3 °C 1017.5 hPa SW 6.4 km/h 17.7 km/h 57 % 0.0 mm
19:12 24.2 °C 15.4 °C 1017.2 hPa SW 3.2 km/h 17.7 km/h 58 % 0.0 mm
19:22 24.9 °C 16.1 °C 1017.2 hPa SW 4.8 km/h 11.3 km/h 58 % 0.0 mm
19:27 24.9 °C 15.8 °C 1017.2 hPa SW 8.0 km/h 9.7 km/h 57 % 0.0 mm
19:32 24.6 °C 15.5 °C 1017.2 hPa WSW 8.0 km/h 9.7 km/h 57 % 0.0 mm
19:42 24.9 °C 15.8 °C 1017.2 hPa SW 1.6 km/h 9.7 km/h 57 % 0.0 mm
19:47 25.1 °C 15.7 °C 1017.2 hPa SW 8.0 km/h 9.7 km/h 56 % 0.0 mm
19:57 25.1 °C 16.0 °C 1017.2 hPa SW 6.4 km/h 9.7 km/h 57 % 0.0 mm
20:02 25.2 °C 15.8 °C 1017.2 hPa WSW 1.6 km/h 9.7 km/h 56 % 0.0 mm
20:12 25.2 °C 15.5 °C 1016.8 hPa WSW 3.2 km/h 9.7 km/h 55 % 0.0 mm
20:17 25.3 °C 15.9 °C 1016.8 hPa WNW 3.2 km/h 11.3 km/h 56 % 0.0 mm
20:27 25.3 °C 15.6 °C 1016.8 hPa West 4.8 km/h 6.4 km/h 55 % 0.0 mm
20:32 25.1 °C 15.7 °C 1016.8 hPa NW 1.6 km/h 6.4 km/h 56 % 0.0 mm
20:42 25.2 °C 15.8 °C 1016.8 hPa Calm   6.4 km/h 56 % 0.0 mm
20:47 25.6 °C 15.9 °C 1016.8 hPa WNW 1.6 km/h 8.0 km/h 55 % 0.0 mm
20:52 25.4 °C 15.7 °C 1016.8 hPa Calm   8.0 km/h 55 % 0.0 mm
20:57 25.3 °C 15.6 °C 1016.8 hPa Calm   3.2 km/h 55 % 0.0 mm
21:02 25.5 °C 15.8 °C 1016.8 hPa Calm   3.2 km/h 55 % 0.0 mm
21:12 25.3 °C 15.6 °C 1016.5 hPa Calm   3.2 km/h 55 % 0.0 mm
21:17 25.2 °C 15.8 °C 1016.8 hPa Calm   1.6 km/h 56 % 0.0 mm
21:27 24.7 °C 15.9 °C 1016.5 hPa Calm   1.6 km/h 58 % 0.0 mm
21:32 24.2 °C 15.7 °C 1016.5 hPa Calm   1.6 km/h 59 % 0.0 mm
21:37 23.8 °C 15.6 °C 1016.8 hPa Calm   3.2 km/h 60 % 0.0 mm
21:42 23.5 °C 15.5 °C 1016.8 hPa Calm   3.2 km/h 61 % 0.0 mm
21:47 23.1 °C 15.7 °C 1016.8 hPa Calm   3.2 km/h 63 % 0.0 mm
21:52 22.5 °C 15.3 °C 1016.8 hPa Calm   1.6 km/h 64 % 0.0 mm
21:57 22.1 °C 15.4 °C 1016.8 hPa Calm     66 % 0.0 mm
22:02 21.7 °C 15.3 °C 1016.8 hPa Calm     67 % 0.0 mm
22:12 21.1 °C 15.2 °C 1017.2 hPa Calm     69 % 0.0 mm
22:17 20.9 °C 15.4 °C 1017.2 hPa Calm   1.6 km/h 71 % 0.0 mm
22:22 20.6 °C 15.2 °C 1017.2 hPa Calm   1.6 km/h 71 % 0.0 mm
22:27 20.3 °C 15.1 °C 1017.2 hPa Calm     72 % 0.0 mm
22:32 20.3 °C 15.3 °C 1017.2 hPa Calm     73 % 0.0 mm
22:37 20.1 °C 15.1 °C 1017.2 hPa Calm     73 % 0.0 mm
22:42 19.9 °C 14.9 °C 1017.2 hPa Calm     73 % 0.0 mm
22:47 19.8 °C 15.0 °C 1017.2 hPa Calm     74 % 0.0 mm
22:52 19.5 °C 14.9 °C 1017.2 hPa Calm     75 % 0.0 mm
22:57 19.4 °C 15.1 °C 1017.2 hPa Calm     76 % 0.0 mm
23:02 19.3 °C 15.2 °C 1017.2 hPa Calm     77 % 0.0 mm
23:12 19.1 °C 15.2 °C 1017.2 hPa Calm     78 % 0.0 mm
23:17 18.8 °C 15.1 °C 1017.2 hPa Calm     79 % 0.0 mm
23:22 18.6 °C 14.9 °C 1017.2 hPa Calm     79 % 0.0 mm
23:27 18.6 °C 15.1 °C 1017.2 hPa Calm     80 % 0.0 mm
23:32 18.6 °C 15.1 °C 1017.2 hPa Calm     80 % 0.0 mm
23:37 18.4 °C 14.9 °C 1017.2 hPa Calm     80 % 0.0 mm
23:42 18.4 °C 14.9 °C 1017.2 hPa Calm     80 % 0.0 mm
23:52 17.9 °C 14.6 °C 1017.2 hPa Calm     81 % 0.0 mm
Meteo18
Compliments of Weather Underground - 4 mb

Script developed by  Jim McMurry - jmcmurry@mwt.net Adapted for the template by  Wim van der Kuil - Leuven-Template.eu

You find our weather info also at:

European Weather Network

Weather Underground

Equipment we use:

Weather-station
Davis Vue

Weather-program
Meteohub

Weather-server
Raspberry PI 2 B+

Provider
1 and 1

Davis Vue

Meteohub

Raspberry PI 2 B+

1 and 1